sensor_id;sensor_type;location;lat;lon;timestamp;temperature;humidity
52709;DHT22;38606;52.986;6.980;2023-06-26T00:02:03;22.20;99.90
52709;DHT22;38606;52.986;6.980;2023-06-26T00:04:29;23.20;99.90
52709;DHT22;38606;52.986;6.980;2023-06-26T00:06:54;22.90;99.90
52709;DHT22;38606;52.986;6.980;2023-06-26T00:09:20;22.90;99.90
52709;DHT22;38606;52.986;6.980;2023-06-26T00:11:46;22.70;99.90
52709;DHT22;38606;52.986;6.980;2023-06-26T00:14:12;22.80;99.90
52709;DHT22;38606;52.986;6.980;2023-06-26T00:16:37;23.10;99.90
52709;DHT22;38606;52.986;6.980;2023-06-26T00:19:03;22.80;99.90
52709;DHT22;38606;52.986;6.980;2023-06-26T00:21:29;22.90;99.90
52709;DHT22;38606;52.986;6.980;2023-06-26T00:23:54;22.70;99.90
52709;DHT22;38606;52.986;6.980;2023-06-26T00:26:20;22.60;99.90
52709;DHT22;38606;52.986;6.980;2023-06-26T00:28:46;22.90;99.90
52709;DHT22;38606;52.986;6.980;2023-06-26T00:31:11;22.70;99.90
52709;DHT22;38606;52.986;6.980;2023-06-26T00:33:37;22.90;99.90
52709;DHT22;38606;52.986;6.980;2023-06-26T00:36:03;22.80;99.90
52709;DHT22;38606;52.986;6.980;2023-06-26T00:38:29;22.60;99.90
52709;DHT22;38606;52.986;6.980;2023-06-26T00:40:54;22.70;99.90
52709;DHT22;38606;52.986;6.980;2023-06-26T00:43:21;22.60;99.90
52709;DHT22;38606;52.986;6.980;2023-06-26T00:45:47;22.60;99.90
52709;DHT22;38606;52.986;6.980;2023-06-26T00:48:13;22.40;99.90
52709;DHT22;38606;52.986;6.980;2023-06-26T00:50:40;22.30;99.90
52709;DHT22;38606;52.986;6.980;2023-06-26T00:53:09;22.70;99.90
52709;DHT22;38606;52.986;6.980;2023-06-26T00:55:35;22.50;99.90
52709;DHT22;38606;52.986;6.980;2023-06-26T00:58:00;22.70;99.90
52709;DHT22;38606;52.986;6.980;2023-06-26T01:00:26;22.30;99.90
52709;DHT22;38606;52.986;6.980;2023-06-26T01:02:52;22.40;99.90
52709;DHT22;38606;52.986;6.980;2023-06-26T01:05:18;22.30;99.90
52709;DHT22;38606;52.986;6.980;2023-06-26T01:07:50;22.60;99.90
52709;DHT22;38606;52.986;6.980;2023-06-26T01:10:16;22.40;99.90
52709;DHT22;38606;52.986;6.980;2023-06-26T01:12:42;22.30;99.90
52709;DHT22;38606;52.986;6.980;2023-06-26T01:15:08;22.60;99.90
52709;DHT22;38606;52.986;6.980;2023-06-26T01:17:36;22.50;99.90
52709;DHT22;38606;52.986;6.980;2023-06-26T01:20:05;22.40;99.90
52709;DHT22;38606;52.986;6.980;2023-06-26T01:22:45;24.50;99.90
52709;DHT22;38606;52.986;6.980;2023-06-26T01:25:21;22.20;99.90
52709;DHT22;38606;52.986;6.980;2023-06-26T01:27:50;22.20;99.90
52709;DHT22;38606;52.986;6.980;2023-06-26T01:30:19;22.40;99.90
52709;DHT22;38606;52.986;6.980;2023-06-26T01:32:45;22.30;99.90
52709;DHT22;38606;52.986;6.980;2023-06-26T01:35:12;22.40;99.90
52709;DHT22;38606;52.986;6.980;2023-06-26T01:37:38;22.30;99.90
52709;DHT22;38606;52.986;6.980;2023-06-26T01:40:04;22.30;99.90
52709;DHT22;38606;52.986;6.980;2023-06-26T01:42:34;22.10;99.90
52709;DHT22;38606;52.986;6.980;2023-06-26T01:45:24;22.40;99.90
52709;DHT22;38606;52.986;6.980;2023-06-26T01:47:52;22.40;99.90
52709;DHT22;38606;52.986;6.980;2023-06-26T01:50:22;22.10;99.90
52709;DHT22;38606;52.986;6.980;2023-06-26T01:53:06;22.40;99.90
52709;DHT22;38606;52.986;6.980;2023-06-26T01:56:08;22.10;99.90
52709;DHT22;38606;52.986;6.980;2023-06-26T01:58:40;22.40;99.90
52709;DHT22;38606;52.986;6.980;2023-06-26T02:01:06;22.20;99.90
52709;DHT22;38606;52.986;6.980;2023-06-26T02:03:32;22.40;99.90
52709;DHT22;38606;52.986;6.980;2023-06-26T02:05:57;22.20;99.90
52709;DHT22;38606;52.986;6.980;2023-06-26T02:08:23;22.20;99.90
52709;DHT22;38606;52.986;6.980;2023-06-26T02:10:49;22.20;99.90
52709;DHT22;38606;52.986;6.980;2023-06-26T02:13:14;21.90;99.90
52709;DHT22;38606;52.986;6.980;2023-06-26T02:15:40;22.00;99.90
52709;DHT22;38606;52.986;6.980;2023-06-26T02:18:06;22.40;99.90
52709;DHT22;38606;52.986;6.980;2023-06-26T02:20:31;22.10;99.90
52709;DHT22;38606;52.986;6.980;2023-06-26T02:22:58;22.30;99.90
52709;DHT22;38606;52.986;6.980;2023-06-26T02:25:25;22.20;99.90
52709;DHT22;38606;52.986;6.980;2023-06-26T02:27:51;22.30;99.90
52709;DHT22;38606;52.986;6.980;2023-06-26T02:30:17;22.30;99.90
52709;DHT22;38606;52.986;6.980;2023-06-26T02:32:42;22.30;99.90
52709;DHT22;38606;52.986;6.980;2023-06-26T02:35:08;22.40;99.90
52709;DHT22;38606;52.986;6.980;2023-06-26T02:37:34;22.10;99.90
52709;DHT22;38606;52.986;6.980;2023-06-26T02:40:00;22.00;99.90
52709;DHT22;38606;52.986;6.980;2023-06-26T02:42:25;22.10;99.90
52709;DHT22;38606;52.986;6.980;2023-06-26T02:44:51;22.20;99.90
52709;DHT22;38606;52.986;6.980;2023-06-26T02:47:17;22.00;99.90
52709;DHT22;38606;52.986;6.980;2023-06-26T02:49:43;21.90;99.90
52709;DHT22;38606;52.986;6.980;2023-06-26T02:52:08;22.00;99.90
52709;DHT22;38606;52.986;6.980;2023-06-26T02:54:34;21.90;99.90
52709;DHT22;38606;52.986;6.980;2023-06-26T02:57:00;22.20;99.90
52709;DHT22;38606;52.986;6.980;2023-06-26T02:59:26;22.10;99.90
52709;DHT22;38606;52.986;6.980;2023-06-26T03:01:52;22.00;99.90
52709;DHT22;38606;52.986;6.980;2023-06-26T03:04:17;21.90;99.90
52709;DHT22;38606;52.986;6.980;2023-06-26T03:06:43;22.00;99.90
52709;DHT22;38606;52.986;6.980;2023-06-26T03:09:09;22.00;99.90
52709;DHT22;38606;52.986;6.980;2023-06-26T03:11:35;22.10;99.90
52709;DHT22;38606;52.986;6.980;2023-06-26T03:14:01;22.10;99.90
52709;DHT22;38606;52.986;6.980;2023-06-26T03:16:26;21.80;99.90
52709;DHT22;38606;52.986;6.980;2023-06-26T03:18:52;22.10;99.90
52709;DHT22;38606;52.986;6.980;2023-06-26T03:21:18;22.10;99.90
52709;DHT22;38606;52.986;6.980;2023-06-26T03:23:43;22.00;99.90
52709;DHT22;38606;52.986;6.980;2023-06-26T03:26:09;22.20;99.90
52709;DHT22;38606;52.986;6.980;2023-06-26T03:28:35;22.30;99.90
52709;DHT22;38606;52.986;6.980;2023-06-26T03:31:00;22.00;99.90
52709;DHT22;38606;52.986;6.980;2023-06-26T03:33:26;22.00;99.90
52709;DHT22;38606;52.986;6.980;2023-06-26T03:35:52;22.00;99.90
52709;DHT22;38606;52.986;6.980;2023-06-26T03:38:18;21.90;99.90
52709;DHT22;38606;52.986;6.980;2023-06-26T03:40:43;22.20;99.90
52709;DHT22;38606;52.986;6.980;2023-06-26T03:43:09;22.10;99.90
52709;DHT22;38606;52.986;6.980;2023-06-26T03:45:35;22.00;99.90
52709;DHT22;38606;52.986;6.980;2023-06-26T03:48:00;22.00;99.90
52709;DHT22;38606;52.986;6.980;2023-06-26T03:50:26;22.10;99.90
52709;DHT22;38606;52.986;6.980;2023-06-26T03:52:52;21.90;99.90
52709;DHT22;38606;52.986;6.980;2023-06-26T03:55:19;22.10;99.90
52709;DHT22;38606;52.986;6.980;2023-06-26T03:57:46;22.10;99.90
52709;DHT22;38606;52.986;6.980;2023-06-26T04:00:12;22.10;99.90
52709;DHT22;38606;52.986;6.980;2023-06-26T04:02:38;22.20;99.90
52709;DHT22;38606;52.986;6.980;2023-06-26T04:05:04;22.00;99.90
52709;DHT22;38606;52.986;6.980;2023-06-26T04:07:30;21.90;99.90
52709;DHT22;38606;52.986;6.980;2023-06-26T04:09:57;22.00;99.90
52709;DHT22;38606;52.986;6.980;2023-06-26T04:12:23;22.20;99.90
52709;DHT22;38606;52.986;6.980;2023-06-26T04:14:48;22.10;99.90
52709;DHT22;38606;52.986;6.980;2023-06-26T04:17:14;22.30;99.90
52709;DHT22;38606;52.986;6.980;2023-06-26T04:19:40;22.20;99.90
52709;DHT22;38606;52.986;6.980;2023-06-26T04:22:05;22.40;99.90
52709;DHT22;38606;52.986;6.980;2023-06-26T04:24:31;22.20;99.90
52709;DHT22;38606;52.986;6.980;2023-06-26T04:26:57;22.50;99.90
52709;DHT22;38606;52.986;6.980;2023-06-26T04:29:25;22.70;99.90
52709;DHT22;38606;52.986;6.980;2023-06-26T04:31:51;22.60;99.90
52709;DHT22;38606;52.986;6.980;2023-06-26T04:34:17;22.50;99.90
52709;DHT22;38606;52.986;6.980;2023-06-26T04:36:43;22.60;99.90
52709;DHT22;38606;52.986;6.980;2023-06-26T04:39:13;22.70;99.90
52709;DHT22;38606;52.986;6.980;2023-06-26T04:41:40;22.70;99.90
52709;DHT22;38606;52.986;6.980;2023-06-26T04:44:06;22.70;99.90
52709;DHT22;38606;52.986;6.980;2023-06-26T04:46:31;22.60;99.90
52709;DHT22;38606;52.986;6.980;2023-06-26T04:48:57;22.60;99.90
52709;DHT22;38606;52.986;6.980;2023-06-26T04:51:24;22.60;99.90
52709;DHT22;38606;52.986;6.980;2023-06-26T04:53:52;22.30;99.90
52709;DHT22;38606;52.986;6.980;2023-06-26T04:56:18;22.70;99.90
52709;DHT22;38606;52.986;6.980;2023-06-26T04:58:44;22.30;99.90
52709;DHT22;38606;52.986;6.980;2023-06-26T05:01:09;22.80;99.90
52709;DHT22;38606;52.986;6.980;2023-06-26T05:03:35;22.90;99.90
52709;DHT22;38606;52.986;6.980;2023-06-26T05:06:02;23.00;99.90
52709;DHT22;38606;52.986;6.980;2023-06-26T05:08:28;22.90;99.90
52709;DHT22;38606;52.986;6.980;2023-06-26T05:10:53;22.70;99.90
52709;DHT22;38606;52.986;6.980;2023-06-26T05:13:24;22.80;99.90
52709;DHT22;38606;52.986;6.980;2023-06-26T05:15:50;22.90;99.90
52709;DHT22;38606;52.986;6.980;2023-06-26T05:18:16;23.30;99.90
52709;DHT22;38606;52.986;6.980;2023-06-26T05:20:42;23.10;99.90
52709;DHT22;38606;52.986;6.980;2023-06-26T05:23:08;22.20;99.90
52709;DHT22;38606;52.986;6.980;2023-06-26T05:25:36;23.20;99.90
52709;DHT22;38606;52.986;6.980;2023-06-26T05:28:02;23.50;99.90
52709;DHT22;38606;52.986;6.980;2023-06-26T05:30:31;23.20;99.90
52709;DHT22;38606;52.986;6.980;2023-06-26T05:32:59;23.20;99.90
52709;DHT22;38606;52.986;6.980;2023-06-26T05:35:28;23.20;99.90
52709;DHT22;38606;52.986;6.980;2023-06-26T05:37:56;23.40;99.90
52709;DHT22;38606;52.986;6.980;2023-06-26T05:40:22;23.20;99.90
52709;DHT22;38606;52.986;6.980;2023-06-26T05:42:48;23.60;99.90
52709;DHT22;38606;52.986;6.980;2023-06-26T05:45:14;23.60;99.90
52709;DHT22;38606;52.986;6.980;2023-06-26T05:47:40;23.50;99.90
52709;DHT22;38606;52.986;6.980;2023-06-26T05:50:08;23.30;99.90
52709;DHT22;38606;52.986;6.980;2023-06-26T05:52:35;23.60;99.90
52709;DHT22;38606;52.986;6.980;2023-06-26T05:55:01;23.50;99.90
52709;DHT22;38606;52.986;6.980;2023-06-26T05:57:29;23.60;99.90
52709;DHT22;38606;52.986;6.980;2023-06-26T05:59:55;23.60;99.90
52709;DHT22;38606;52.986;6.980;2023-06-26T06:02:22;23.40;99.90
52709;DHT22;38606;52.986;6.980;2023-06-26T06:04:47;23.60;99.90
52709;DHT22;38606;52.986;6.980;2023-06-26T06:07:13;23.20;99.90
52709;DHT22;38606;52.986;6.980;2023-06-26T06:09:39;23.60;99.90
52709;DHT22;38606;52.986;6.980;2023-06-26T06:12:08;23.40;99.90
52709;DHT22;38606;52.986;6.980;2023-06-26T06:14:34;23.40;99.90
52709;DHT22;38606;52.986;6.980;2023-06-26T06:17:01;23.10;99.90
52709;DHT22;38606;52.986;6.980;2023-06-26T06:19:26;23.30;99.90
52709;DHT22;38606;52.986;6.980;2023-06-26T06:21:52;23.20;99.90
52709;DHT22;38606;52.986;6.980;2023-06-26T06:24:19;23.30;99.90
52709;DHT22;38606;52.986;6.980;2023-06-26T06:26:45;23.10;99.90
52709;DHT22;38606;52.986;6.980;2023-06-26T06:29:11;23.00;99.90
52709;DHT22;38606;52.986;6.980;2023-06-26T06:31:36;23.00;99.90
52709;DHT22;38606;52.986;6.980;2023-06-26T06:34:02;23.20;99.90
52709;DHT22;38606;52.986;6.980;2023-06-26T06:36:28;23.40;99.90
52709;DHT22;38606;52.986;6.980;2023-06-26T06:38:54;23.10;99.90
52709;DHT22;38606;52.986;6.980;2023-06-26T06:41:22;23.10;99.90
52709;DHT22;38606;52.986;6.980;2023-06-26T06:43:48;23.00;99.90
52709;DHT22;38606;52.986;6.980;2023-06-26T06:46:14;23.00;99.90
52709;DHT22;38606;52.986;6.980;2023-06-26T06:48:39;23.20;99.90
52709;DHT22;38606;52.986;6.980;2023-06-26T06:51:05;23.20;99.90
52709;DHT22;38606;52.986;6.980;2023-06-26T06:53:31;24.10;99.90
52709;DHT22;38606;52.986;6.980;2023-06-26T06:55:57;23.10;99.90
52709;DHT22;38606;52.986;6.980;2023-06-26T06:58:22;23.40;99.90
52709;DHT22;38606;52.986;6.980;2023-06-26T07:00:48;23.50;99.90
52709;DHT22;38606;52.986;6.980;2023-06-26T07:03:14;23.30;99.90
52709;DHT22;38606;52.986;6.980;2023-06-26T07:05:44;23.50;99.90
52709;DHT22;38606;52.986;6.980;2023-06-26T07:08:09;23.60;99.90
52709;DHT22;38606;52.986;6.980;2023-06-26T07:10:35;23.80;99.90
52709;DHT22;38606;52.986;6.980;2023-06-26T07:13:01;23.40;99.90
52709;DHT22;38606;52.986;6.980;2023-06-26T07:15:27;23.90;99.90
52709;DHT22;38606;52.986;6.980;2023-06-26T07:17:53;24.20;99.90
52709;DHT22;38606;52.986;6.980;2023-06-26T07:20:18;23.70;99.90
52709;DHT22;38606;52.986;6.980;2023-06-26T07:22:44;24.00;99.90
52709;DHT22;38606;52.986;6.980;2023-06-26T07:25:11;24.30;99.90
52709;DHT22;38606;52.986;6.980;2023-06-26T07:27:40;24.20;99.90
52709;DHT22;38606;52.986;6.980;2023-06-26T07:30:07;24.20;99.90
52709;DHT22;38606;52.986;6.980;2023-06-26T07:32:39;24.40;99.90
52709;DHT22;38606;52.986;6.980;2023-06-26T07:35:06;24.50;99.90
52709;DHT22;38606;52.986;6.980;2023-06-26T07:37:32;24.60;99.90
52709;DHT22;38606;52.986;6.980;2023-06-26T07:39:57;24.60;99.90
52709;DHT22;38606;52.986;6.980;2023-06-26T07:42:23;24.80;99.90
52709;DHT22;38606;52.986;6.980;2023-06-26T07:44:49;25.00;99.90
52709;DHT22;38606;52.986;6.980;2023-06-26T07:47:14;24.90;99.90
52709;DHT22;38606;52.986;6.980;2023-06-26T07:49:40;25.10;99.90
52709;DHT22;38606;52.986;6.980;2023-06-26T07:52:06;25.10;99.90
52709;DHT22;38606;52.986;6.980;2023-06-26T07:54:32;24.80;99.90
52709;DHT22;38606;52.986;6.980;2023-06-26T07:57:00;25.00;99.90
52709;DHT22;38606;52.986;6.980;2023-06-26T07:59:26;25.30;99.90
52709;DHT22;38606;52.986;6.980;2023-06-26T08:01:54;25.20;99.90
52709;DHT22;38606;52.986;6.980;2023-06-26T08:04:21;25.20;99.90
52709;DHT22;38606;52.986;6.980;2023-06-26T08:06:55;25.50;99.90
52709;DHT22;38606;52.986;6.980;2023-06-26T08:09:22;25.50;99.90
52709;DHT22;38606;52.986;6.980;2023-06-26T08:11:48;25.40;99.90
52709;DHT22;38606;52.986;6.980;2023-06-26T08:14:15;25.50;99.90
52709;DHT22;38606;52.986;6.980;2023-06-26T08:16:42;25.80;99.90
52709;DHT22;38606;52.986;6.980;2023-06-26T08:19:15;26.10;99.90
52709;DHT22;38606;52.986;6.980;2023-06-26T08:21:42;25.80;99.90
52709;DHT22;38606;52.986;6.980;2023-06-26T08:24:09;26.40;99.90
52709;DHT22;38606;52.986;6.980;2023-06-26T08:26:35;25.90;99.90
52709;DHT22;38606;52.986;6.980;2023-06-26T08:29:01;26.20;99.90
52709;DHT22;38606;52.986;6.980;2023-06-26T08:31:36;26.30;99.90
52709;DHT22;38606;52.986;6.980;2023-06-26T08:34:03;26.40;99.90
52709;DHT22;38606;52.986;6.980;2023-06-26T08:36:29;26.30;99.90
52709;DHT22;38606;52.986;6.980;2023-06-26T08:38:55;26.60;99.90
52709;DHT22;38606;52.986;6.980;2023-06-26T08:41:20;25.90;99.90
52709;DHT22;38606;52.986;6.980;2023-06-26T08:43:46;26.30;99.90
52709;DHT22;38606;52.986;6.980;2023-06-26T08:46:14;26.30;99.90
52709;DHT22;38606;52.986;6.980;2023-06-26T08:48:45;25.90;99.60
52709;DHT22;38606;52.986;6.980;2023-06-26T08:51:16;26.20;99.60
52709;DHT22;38606;52.986;6.980;2023-06-26T08:53:58;25.90;99.90
52709;DHT22;38606;52.986;6.980;2023-06-26T08:56:32;26.10;99.80
52709;DHT22;38606;52.986;6.980;2023-06-26T08:58:58;26.20;99.90
52709;DHT22;38606;52.986;6.980;2023-06-26T09:01:24;25.70;99.20
52709;DHT22;38606;52.986;6.980;2023-06-26T09:03:51;25.70;99.10
52709;DHT22;38606;52.986;6.980;2023-06-26T09:06:17;25.70;99.30
52709;DHT22;38606;52.986;6.980;2023-06-26T09:08:44;25.70;99.00
52709;DHT22;38606;52.986;6.980;2023-06-26T09:11:09;25.60;99.30
52709;DHT22;38606;52.986;6.980;2023-06-26T09:13:35;25.90;99.80
52709;DHT22;38606;52.986;6.980;2023-06-26T09:16:06;25.90;99.30
52709;DHT22;38606;52.986;6.980;2023-06-26T09:18:33;25.80;98.40
52709;DHT22;38606;52.986;6.980;2023-06-26T09:20:59;25.80;98.40
52709;DHT22;38606;52.986;6.980;2023-06-26T09:23:26;25.60;98.10
52709;DHT22;38606;52.986;6.980;2023-06-26T09:25:52;24.70;98.00
52709;DHT22;38606;52.986;6.980;2023-06-26T09:28:17;25.70;97.80
52709;DHT22;38606;52.986;6.980;2023-06-26T09:30:45;26.20;97.90
52709;DHT22;38606;52.986;6.980;2023-06-26T09:33:15;26.10;97.90
52709;DHT22;38606;52.986;6.980;2023-06-26T09:35:41;26.00;97.20
52709;DHT22;38606;52.986;6.980;2023-06-26T09:38:07;26.10;96.60
52709;DHT22;38606;52.986;6.980;2023-06-26T09:40:33;26.30;97.20
52709;DHT22;38606;52.986;6.980;2023-06-26T09:43:10;26.60;97.00
52709;DHT22;38606;52.986;6.980;2023-06-26T09:45:39;26.20;96.10
52709;DHT22;38606;52.986;6.980;2023-06-26T09:48:06;26.20;95.90
52709;DHT22;38606;52.986;6.980;2023-06-26T09:50:34;26.40;96.00
52709;DHT22;38606;52.986;6.980;2023-06-26T09:53:11;26.50;95.00
52709;DHT22;38606;52.986;6.980;2023-06-26T09:55:39;26.30;95.10
52709;DHT22;38606;52.986;6.980;2023-06-26T09:58:06;26.20;95.70
52709;DHT22;38606;52.986;6.980;2023-06-26T10:00:32;26.10;95.40
52709;DHT22;38606;52.986;6.980;2023-06-26T10:03:01;26.20;95.80
52709;DHT22;38606;52.986;6.980;2023-06-26T10:05:27;26.30;95.10
52709;DHT22;38606;52.986;6.980;2023-06-26T10:07:53;26.20;94.50
52709;DHT22;38606;52.986;6.980;2023-06-26T10:10:20;25.80;94.20
52709;DHT22;38606;52.986;6.980;2023-06-26T10:12:48;25.80;94.60
52709;DHT22;38606;52.986;6.980;2023-06-26T10:15:15;25.70;94.60
52709;DHT22;38606;52.986;6.980;2023-06-26T10:17:43;25.90;95.40
52709;DHT22;38606;52.986;6.980;2023-06-26T10:20:10;25.70;96.00
52709;DHT22;38606;52.986;6.980;2023-06-26T10:22:41;26.20;95.90
52709;DHT22;38606;52.986;6.980;2023-06-26T10:25:09;26.30;94.80
52709;DHT22;38606;52.986;6.980;2023-06-26T10:27:40;26.00;94.70
52709;DHT22;38606;52.986;6.980;2023-06-26T10:30:12;26.30;94.40
52709;DHT22;38606;52.986;6.980;2023-06-26T10:32:40;26.40;93.40
52709;DHT22;38606;52.986;6.980;2023-06-26T10:35:07;26.10;93.30
52709;DHT22;38606;52.986;6.980;2023-06-26T10:37:49;26.00;93.20
52709;DHT22;38606;52.986;6.980;2023-06-26T10:40:25;26.10;93.00
52709;DHT22;38606;52.986;6.980;2023-06-26T10:42:51;26.20;92.90
52709;DHT22;38606;52.986;6.980;2023-06-26T10:45:30;26.40;92.80
52709;DHT22;38606;52.986;6.980;2023-06-26T10:47:58;26.30;92.80
52709;DHT22;38606;52.986;6.980;2023-06-26T10:50:29;26.20;91.60
52709;DHT22;38606;52.986;6.980;2023-06-26T10:53:25;26.30;91.90
52709;DHT22;38606;52.986;6.980;2023-06-26T10:55:57;26.30;91.60
52709;DHT22;38606;52.986;6.980;2023-06-26T10:58:30;26.10;91.70
52709;DHT22;38606;52.986;6.980;2023-06-26T11:03:38;26.00;91.20
52709;DHT22;38606;52.986;6.980;2023-06-26T11:06:11;26.10;91.40
52709;DHT22;38606;52.986;6.980;2023-06-26T11:08:51;25.80;90.90
52709;DHT22;38606;52.986;6.980;2023-06-26T11:11:21;26.10;91.00
52709;DHT22;38606;52.986;6.980;2023-06-26T11:13:47;26.00;91.80
52709;DHT22;38606;52.986;6.980;2023-06-26T11:16:14;26.30;90.60
52709;DHT22;38606;52.986;6.980;2023-06-26T11:18:41;26.20;90.40
52709;DHT22;38606;52.986;6.980;2023-06-26T11:21:08;26.30;89.80
52709;DHT22;38606;52.986;6.980;2023-06-26T11:23:38;26.10;89.00
52709;DHT22;38606;52.986;6.980;2023-06-26T11:26:15;26.10;89.20
52709;DHT22;38606;52.986;6.980;2023-06-26T11:29:07;26.10;89.80
52709;DHT22;38606;52.986;6.980;2023-06-26T11:31:35;26.30;87.60
52709;DHT22;38606;52.986;6.980;2023-06-26T11:34:09;25.90;88.70
52709;DHT22;38606;52.986;6.980;2023-06-26T11:36:42;25.80;84.80
52709;DHT22;38606;52.986;6.980;2023-06-26T11:39:08;25.50;86.30
52709;DHT22;38606;52.986;6.980;2023-06-26T11:41:35;25.70;87.60
52709;DHT22;38606;52.986;6.980;2023-06-26T11:44:09;25.60;87.30
52709;DHT22;38606;52.986;6.980;2023-06-26T11:46:36;25.60;85.60
52709;DHT22;38606;52.986;6.980;2023-06-26T11:49:11;25.50;88.20
52709;DHT22;38606;52.986;6.980;2023-06-26T11:51:36;25.70;87.20
52709;DHT22;38606;52.986;6.980;2023-06-26T11:54:03;25.50;86.60
52709;DHT22;38606;52.986;6.980;2023-06-26T11:56:29;25.40;86.90
52709;DHT22;38606;52.986;6.980;2023-06-26T11:59:11;25.90;86.70
52709;DHT22;38606;52.986;6.980;2023-06-26T12:01:41;25.90;85.50
52709;DHT22;38606;52.986;6.980;2023-06-26T12:04:09;26.20;86.60
52709;DHT22;38606;52.986;6.980;2023-06-26T12:06:36;25.90;86.00
52709;DHT22;38606;52.986;6.980;2023-06-26T12:09:05;26.40;85.10
52709;DHT22;38606;52.986;6.980;2023-06-26T12:11:34;26.30;83.60
52709;DHT22;38606;52.986;6.980;2023-06-26T12:14:00;26.00;83.30
52709;DHT22;38606;52.986;6.980;2023-06-26T12:16:33;26.60;84.20
52709;DHT22;38606;52.986;6.980;2023-06-26T12:18:59;26.60;83.00
52709;DHT22;38606;52.986;6.980;2023-06-26T12:21:49;26.40;81.80
52709;DHT22;38606;52.986;6.980;2023-06-26T12:24:18;26.60;81.20
52709;DHT22;38606;52.986;6.980;2023-06-26T12:26:45;26.50;78.70
52709;DHT22;38606;52.986;6.980;2023-06-26T12:29:13;26.70;78.50
52709;DHT22;38606;52.986;6.980;2023-06-26T12:31:43;26.50;80.10
52709;DHT22;38606;52.986;6.980;2023-06-26T12:34:13;26.50;81.20
52709;DHT22;38606;52.986;6.980;2023-06-26T12:36:43;26.40;81.70
52709;DHT22;38606;52.986;6.980;2023-06-26T12:39:10;26.60;82.60
52709;DHT22;38606;52.986;6.980;2023-06-26T12:41:54;26.30;81.40
52709;DHT22;38606;52.986;6.980;2023-06-26T12:44:30;26.50;80.80
52709;DHT22;38606;52.986;6.980;2023-06-26T12:47:02;26.50;82.80
52709;DHT22;38606;52.986;6.980;2023-06-26T12:49:39;26.20;82.00
52709;DHT22;38606;52.986;6.980;2023-06-26T12:52:06;26.30;82.30
52709;DHT22;38606;52.986;6.980;2023-06-26T12:54:33;26.40;82.20
52709;DHT22;38606;52.986;6.980;2023-06-26T12:56:59;26.20;81.40
52709;DHT22;38606;52.986;6.980;2023-06-26T12:59:25;26.20;81.40
52709;DHT22;38606;52.986;6.980;2023-06-26T13:01:51;26.10;82.50
52709;DHT22;38606;52.986;6.980;2023-06-26T13:04:17;26.10;81.00
52709;DHT22;38606;52.986;6.980;2023-06-26T13:06:43;25.90;79.70
52709;DHT22;38606;52.986;6.980;2023-06-26T13:09:09;25.90;79.20
52709;DHT22;38606;52.986;6.980;2023-06-26T13:11:36;26.20;78.80
52709;DHT22;38606;52.986;6.980;2023-06-26T13:14:02;26.40;78.70
52709;DHT22;38606;52.986;6.980;2023-06-26T13:16:28;26.10;79.00
52709;DHT22;38606;52.986;6.980;2023-06-26T13:18:54;26.10;77.80
52709;DHT22;38606;52.986;6.980;2023-06-26T13:21:21;26.10;78.10
52709;DHT22;38606;52.986;6.980;2023-06-26T13:23:47;26.00;78.00
52709;DHT22;38606;52.986;6.980;2023-06-26T13:26:13;25.90;79.40
52709;DHT22;38606;52.986;6.980;2023-06-26T13:28:38;26.10;79.70
52709;DHT22;38606;52.986;6.980;2023-06-26T13:31:04;26.20;80.90
52709;DHT22;38606;52.986;6.980;2023-06-26T13:33:31;25.80;81.30
52709;DHT22;38606;52.986;6.980;2023-06-26T13:35:56;26.00;80.50
52709;DHT22;38606;52.986;6.980;2023-06-26T13:38:23;26.00;80.90
52709;DHT22;38606;52.986;6.980;2023-06-26T13:40:55;25.90;80.50
52709;DHT22;38606;52.986;6.980;2023-06-26T13:43:23;26.00;81.30
52709;DHT22;38606;52.986;6.980;2023-06-26T13:45:52;25.80;82.20
52709;DHT22;38606;52.986;6.980;2023-06-26T13:48:17;25.70;82.30
52709;DHT22;38606;52.986;6.980;2023-06-26T13:50:43;25.50;82.20
52709;DHT22;38606;52.986;6.980;2023-06-26T13:53:09;25.40;82.10
52709;DHT22;38606;52.986;6.980;2023-06-26T13:55:35;25.50;82.70
52709;DHT22;38606;52.986;6.980;2023-06-26T13:58:01;25.30;82.80
52709;DHT22;38606;52.986;6.980;2023-06-26T14:00:32;24.90;81.50
52709;DHT22;38606;52.986;6.980;2023-06-26T14:03:02;25.00;82.50
52709;DHT22;38606;52.986;6.980;2023-06-26T14:05:36;25.10;82.50
52709;DHT22;38606;52.986;6.980;2023-06-26T14:08:07;25.20;84.60
52709;DHT22;38606;52.986;6.980;2023-06-26T14:10:33;25.10;83.30
52709;DHT22;38606;52.986;6.980;2023-06-26T14:13:00;25.10;83.40
52709;DHT22;38606;52.986;6.980;2023-06-26T14:15:26;25.30;82.50
52709;DHT22;38606;52.986;6.980;2023-06-26T14:17:51;25.30;83.10
52709;DHT22;38606;52.986;6.980;2023-06-26T14:20:18;25.20;83.60
52709;DHT22;38606;52.986;6.980;2023-06-26T14:22:46;25.30;82.50
52709;DHT22;38606;52.986;6.980;2023-06-26T14:25:14;25.30;82.30
52709;DHT22;38606;52.986;6.980;2023-06-26T14:27:40;25.50;82.30
52709;DHT22;38606;52.986;6.980;2023-06-26T14:30:07;25.30;81.40
52709;DHT22;38606;52.986;6.980;2023-06-26T14:32:33;25.40;81.00
52709;DHT22;38606;52.986;6.980;2023-06-26T14:34:59;25.20;81.10
52709;DHT22;38606;52.986;6.980;2023-06-26T14:37:26;27.20;84.30
52709;DHT22;38606;52.986;6.980;2023-06-26T14:39:52;25.20;82.70
52709;DHT22;38606;52.986;6.980;2023-06-26T14:42:18;24.90;81.60
52709;DHT22;38606;52.986;6.980;2023-06-26T14:44:44;25.00;82.20
52709;DHT22;38606;52.986;6.980;2023-06-26T14:47:13;24.90;82.40
52709;DHT22;38606;52.986;6.980;2023-06-26T14:49:39;24.80;82.10
52709;DHT22;38606;52.986;6.980;2023-06-26T14:52:05;24.70;82.80
52709;DHT22;38606;52.986;6.980;2023-06-26T14:54:31;24.80;83.00
52709;DHT22;38606;52.986;6.980;2023-06-26T14:56:58;24.70;83.80
52709;DHT22;38606;52.986;6.980;2023-06-26T14:59:24;24.60;83.30
52709;DHT22;38606;52.986;6.980;2023-06-26T15:01:49;24.80;84.10
52709;DHT22;38606;52.986;6.980;2023-06-26T15:04:15;24.70;83.70
52709;DHT22;38606;52.986;6.980;2023-06-26T15:06:41;25.10;83.20
52709;DHT22;38606;52.986;6.980;2023-06-26T15:09:07;25.00;83.00
52709;DHT22;38606;52.986;6.980;2023-06-26T15:11:34;24.90;81.70
52709;DHT22;38606;52.986;6.980;2023-06-26T15:14:01;24.90;81.70
52709;DHT22;38606;52.986;6.980;2023-06-26T15:16:27;24.90;81.80
52709;DHT22;38606;52.986;6.980;2023-06-26T15:18:52;24.60;82.30
52709;DHT22;38606;52.986;6.980;2023-06-26T15:21:18;24.90;83.80
52709;DHT22;38606;52.986;6.980;2023-06-26T15:23:45;24.50;84.50
52709;DHT22;38606;52.986;6.980;2023-06-26T15:26:11;24.40;84.00
52709;DHT22;38606;52.986;6.980;2023-06-26T15:28:37;24.30;83.70
52709;DHT22;38606;52.986;6.980;2023-06-26T15:31:02;24.20;84.20
52709;DHT22;38606;52.986;6.980;2023-06-26T15:33:28;24.50;84.50
52709;DHT22;38606;52.986;6.980;2023-06-26T15:35:54;24.50;84.60